Time;durP1;ratioP1;P1;durP2;ratioP2;P2;SDS_P1;SDS_P2;PMS_P1;PMS_P2;Temp;Humidity;BMP_temperature;BMP_pressure;BME280_temperature;BME280_humidity;BME280_pressure;Samples;Min_cycle;Max_cycle;Signal;HPM_P1;HPM_P2
2022/12/15 00:39:33;;;;;;;7.10;5.50;;;0.70;78.00;;;;;;5090992;28;20952;-70
2022/12/15 00:42:00;;;;;;;16.87;8.67;;;0.90;99.90;;;;;;5079710;28;20460;-71
2022/12/15 00:44:27;;;;;;;11.23;8.50;;;1.00;3.20;;;;;;5089801;28;20452;-70
2022/12/15 00:46:53;;;;;;;9.70;5.87;;;1.00;92.90;;;;;;5086463;28;20456;-71
2022/12/15 01:22:21;;;;;;;13.17;6.77;;;1.00;99.90;;;;;;5094309;28;20457;-70
2022/12/15 01:24:50;;;;;;;14.10;11.27;;;1.00;99.90;;;;;;5094249;28;20458;-68
2022/12/15 01:27:17;;;;;;;13.23;7.87;;;1.00;99.90;;;;;;5091084;28;20495;-71
2022/12/15 01:29:44;;;;;;;12.90;8.07;;;1.00;99.90;;;;;;5088532;28;20452;-70
2022/12/15 01:32:11;;;;;;;17.47;9.17;;;1.10;99.90;;;;;;5098266;28;20466;-70
2022/12/15 01:34:37;;;;;;;15.67;7.60;;;1.00;99.90;;;;;;5099091;28;21156;-71
2022/12/15 01:37:04;;;;;;;17.60;8.27;;;1.00;99.90;;;;;;5085367;28;20470;-71
2022/12/15 01:42:14;;;;;;;13.93;7.80;;;1.10;77.80;;;;;;5092671;28;20728;-71
2022/12/15 01:44:41;;;;;;;14.93;8.40;;;1.10;1.00;;;;;;5099435;28;20466;-71
2022/12/15 01:47:12;;;;;;;18.07;7.90;;;1.00;1.00;;;;;;5096808;28;20468;-70
2022/12/15 01:49:39;;;;;;;14.00;9.57;;;1.00;1.00;;;;;;5095773;28;20487;-70
2022/12/15 01:52:08;;;;;;;15.33;6.67;;;1.10;1.00;;;;;;5083716;28;20448;-70
2022/12/15 01:54:38;;;;;;;21.13;8.30;;;1.10;1.00;;;;;;5089432;28;20456;-70
2022/12/15 01:57:08;;;;;;;11.27;7.60;;;1.00;1.00;;;;;;5081869;28;20460;-70
2022/12/15 01:59:42;;;;;;;11.27;7.10;;;1.00;1.00;;;;;;5091710;28;20441;-72
2022/12/15 02:02:10;;;;;;;8.93;6.70;;;1.00;2.70;;;;;;5086379;28;20438;-71
2022/12/15 02:04:37;;;;;;;11.97;7.87;;;1.00;1.00;;;;;;5094336;28;20452;-71
2022/12/15 02:07:04;;;;;;;12.87;7.57;;;0.90;1.00;;;;;;5086004;28;20447;-71
2022/12/15 02:09:31;;;;;;;12.23;6.80;;;0.90;1.00;;;;;;5091708;28;20462;-71
2022/12/15 02:12:02;;;;;;;15.53;7.37;;;1.00;1.00;;;;;;5095685;28;20548;-71
2022/12/15 02:14:45;;;;;;;12.90;7.10;;;1.00;1.00;;;;;;5092605;28;20455;-71
2022/12/15 02:17:22;;;;;;;10.07;6.83;;;1.00;1.00;;;;;;5094366;28;20463;-70
2022/12/15 02:20:25;;;;;;;10.87;8.20;;;1.00;1.00;;;;;;5085789;28;20444;-69
2022/12/15 02:23:17;;;;;;;12.30;8.07;;;1.00;1.00;;;;;;5057169;28;20456;-70
2022/12/15 02:25:59;;;;;;;21.70;9.70;;;1.00;1.00;;;;;;5094552;28;20483;-70
2022/12/15 02:28:38;;;;;;;10.20;7.10;;;1.00;1.00;;;;;;5096245;28;20446;-69
2022/12/15 02:34:05;;;;;;;17.67;8.33;;;1.00;1.00;;;;;;5095147;28;20915;-70
2022/12/15 02:36:36;;;;;;;19.87;9.03;;;1.10;1.00;;;;;;5095845;28;20443;-71
2022/12/15 02:39:05;;;;;;;12.80;9.13;;;1.00;1.00;;;;;;5095652;28;20448;-71
2022/12/15 02:41:35;;;;;;;16.37;9.70;;;1.10;1.00;;;;;;5095792;28;20479;-70
2022/12/15 02:44:07;;;;;;;14.20;7.73;;;1.10;1.00;;;;;;5086453;28;20539;-72
2022/12/15 02:46:45;;;;;;;18.70;8.93;;;1.10;1.00;;;;;;5080957;28;20457;-70
2022/12/15 02:49:21;;;;;;;15.03;8.43;;;1.00;1.00;;;;;;5094924;28;20484;-72
2022/12/15 02:51:57;;;;;;;13.00;7.93;;;1.10;1.00;;;;;;5085845;28;20466;-69
2022/12/15 02:54:36;;;;;;;11.20;8.87;;;1.10;31.80;;;;;;5094458;28;20496;-70
2022/12/15 02:57:10;;;;;;;12.50;9.40;;;1.00;99.90;;;;;;5083050;28;20443;-71
2022/12/15 02:59:43;;;;;;;18.47;11.47;;;1.00;99.90;;;;;;5094018;28;20442;-70
2022/12/15 03:02:14;;;;;;;15.90;8.40;;;0.90;99.90;;;;;;5096107;28;20443;-71
2022/12/15 03:04:44;;;;;;;11.90;6.40;;;0.90;99.90;;;;;;5087463;28;20454;-71
2022/12/15 03:07:11;;;;;;;11.03;8.03;;;0.90;99.90;;;;;;5086881;28;20463;-71
2022/12/15 03:09:38;;;;;;;13.80;7.87;;;1.00;1.00;;;;;;5084086;28;20455;-71
2022/12/15 03:12:05;;;;;;;12.40;8.90;;;1.00;99.90;;;;;;5093059;28;20444;-71
2022/12/15 03:14:33;;;;;;;16.23;8.80;;;1.00;99.90;;;;;;5080830;28;20453;-72
2022/12/15 03:16:59;;;;;;;14.50;7.83;;;1.00;1.00;;;;;;5093672;28;20455;-70
2022/12/15 03:19:28;;;;;;;17.37;9.30;;;1.00;99.90;;;;;;5081906;28;20953;-70
2022/12/15 03:21:55;;;;;;;15.77;9.00;;;1.00;1.00;;;;;;5093847;28;20491;-70
2022/12/15 03:24:21;;;;;;;14.90;9.17;;;0.90;1.00;;;;;;5078277;28;20450;-70
2022/12/15 03:26:49;;;;;;;19.00;10.37;;;0.90;1.00;;;;;;5086910;28;20449;-68
2022/12/15 03:29:16;;;;;;;12.23;8.80;;;1.00;1.00;;;;;;5086550;28;20459;-70
2022/12/15 03:31:44;;;;;;;14.70;10.07;;;1.00;1.00;;;;;;5097782;28;20460;-71
2022/12/15 03:34:11;;;;;;;22.00;9.07;;;1.00;1.00;;;;;;5097242;28;20462;-71
2022/12/15 03:36:39;;;;;;;15.20;7.40;;;0.90;1.00;;;;;;5097822;28;20460;-72
2022/12/15 03:39:06;;;;;;;12.73;8.07;;;0.90;1.00;;;;;;5099788;28;20452;-72
2022/12/15 03:41:33;;;;;;;14.30;9.00;;;0.90;1.00;;;;;;5095096;28;20475;-72
2022/12/15 03:44:01;;;;;;;11.10;8.03;;;1.00;1.00;;;;;;5108071;28;20539;-71
2022/12/15 03:46:28;;;;;;;16.33;10.50;;;1.00;1.00;;;;;;5107038;28;20452;-71
2022/12/15 03:48:54;;;;;;;16.07;9.00;;;1.00;1.00;;;;;;5104645;28;20478;-71
2022/12/15 03:51:21;;;;;;;20.27;10.97;;;0.80;1.00;;;;;;5093416;28;20467;-71
2022/12/15 03:53:50;;;;;;;17.93;9.50;;;0.90;1.00;;;;;;5092672;28;20451;-68
2022/12/15 03:56:17;;;;;;;16.30;11.20;;;0.80;1.00;;;;;;5083653;28;20442;-71
2022/12/15 03:58:44;;;;;;;14.93;8.13;;;1.00;1.00;;;;;;5087198;28;20454;-71
2022/12/15 04:01:11;;;;;;;16.40;10.73;;;1.00;1.00;;;;;;5083251;28;20572;-71
2022/12/15 04:03:38;;;;;;;16.67;9.33;;;1.00;1.00;;;;;;5094237;28;20446;-70
2022/12/15 04:06:05;;;;;;;15.40;8.07;;;1.10;1.00;;;;;;5083932;28;20448;-71
2022/12/15 04:08:32;;;;;;;17.70;7.93;;;1.00;1.00;;;;;;5080204;28;20465;-71
2022/12/15 04:11:00;;;;;;;17.47;12.27;;;0.90;1.00;;;;;;5077204;28;20454;-70
2022/12/15 04:13:27;;;;;;;15.93;9.13;;;0.90;1.00;;;;;;5075796;28;20444;-71
2022/12/15 04:15:54;;;;;;;15.20;10.63;;;0.90;99.90;;;;;;5091489;28;20453;-71
2022/12/15 04:18:21;;;;;;;23.80;12.97;;;1.00;16.60;;;;;;5083235;28;20464;-70
2022/12/15 04:20:47;;;;;;;22.57;10.93;;;0.90;58.30;;;;;;5078047;28;20482;-68
2022/12/15 04:23:14;;;;;;;13.13;11.00;;;1.00;99.90;;;;;;5094462;28;20451;-71
2022/12/15 05:31:53;;;;;;;16.87;10.43;;;0.70;92.60;;;;;;5078662;28;20494;-72
2022/12/15 05:34:25;;;;;;;18.53;7.93;;;0.90;1.00;;;;;;5086029;28;20477;-72
2022/12/15 05:36:52;;;;;;;11.73;6.93;;;1.00;1.00;;;;;;5086095;28;20534;-72
2022/12/15 05:39:19;;;;;;;12.27;8.70;;;1.10;1.00;;;;;;5084166;28;20449;-72
2022/12/15 05:41:46;;;;;;;16.97;8.80;;;0.90;17.30;;;;;;5091024;28;20994;-73
2022/12/15 05:44:13;;;;;;;14.33;9.63;;;1.00;27.00;;;;;;5089264;28;20967;-73
2022/12/15 05:46:40;;;;;;;16.93;9.97;;;1.10;1.00;;;;;;5084258;28;20463;-73
2022/12/15 05:49:09;;;;;;;18.33;9.40;;;1.00;1.00;;;;;;5083165;28;21106;-74
2022/12/15 05:51:40;;;;;;;26.43;10.10;;;1.00;1.00;;;;;;5087448;28;20534;-72
2022/12/15 05:54:07;;;;;;;17.80;10.60;;;1.10;1.00;;;;;;5084930;28;21212;-72
2022/12/15 05:56:34;;;;;;;13.70;10.00;;;1.20;1.00;;;;;;5092422;28;20476;-72
2022/12/15 05:59:01;;;;;;;24.93;9.70;;;1.10;1.00;;;;;;5079322;28;20454;-73
2022/12/15 06:01:29;;;;;;;19.30;11.70;;;1.20;1.00;;;;;;5090439;28;20475;-73
2022/12/15 06:03:57;;;;;;;18.07;9.17;;;1.10;99.90;;;;;;5077778;28;20506;-72
2022/12/15 06:06:24;;;;;;;10.50;7.97;;;1.10;99.90;;;;;;5084772;28;20542;-72
2022/12/15 06:08:52;;;;;;;13.07;6.77;;;1.00;1.00;;;;;;5081448;28;20457;-72
2022/12/15 06:11:21;;;;;;;15.63;7.73;;;1.00;1.00;;;;;;5073930;28;20461;-72
2022/12/15 06:13:49;;;;;;;16.43;10.20;;;1.10;99.90;;;;;;5084959;28;20451;-68
2022/12/15 06:16:17;;;;;;;22.03;9.50;;;1.00;1.00;;;;;;5087682;28;20570;-72
2022/12/15 06:18:46;;;;;;;14.07;8.87;;;0.90;99.90;;;;;;5090914;28;20449;-73
2022/12/15 06:21:16;;;;;;;13.10;7.27;;;0.90;99.90;;;;;;5089824;28;20979;-73
2022/12/15 06:23:44;;;;;;;18.27;8.63;;;1.00;99.90;;;;;;5091548;28;20546;-73
2022/12/15 06:26:14;;;;;;;16.67;6.97;;;0.90;99.90;;;;;;5081059;28;20460;-73
2022/12/15 06:28:42;;;;;;;12.47;7.57;;;1.00;99.90;;;;;;5081677;28;20475;-72
2022/12/15 06:31:10;;;;;;;12.57;6.77;;;1.10;99.90;;;;;;5075455;28;20484;-71
2022/12/15 06:33:38;;;;;;;11.53;7.03;;;1.10;1.00;;;;;;5090273;28;20999;-72
2022/12/15 06:36:07;;;;;;;13.10;7.90;;;1.10;1.00;;;;;;5075671;28;20459;-73
2022/12/15 06:38:34;;;;;;;14.90;8.13;;;1.20;1.00;;;;;;5085284;28;20470;-72
2022/12/15 06:41:03;;;;;;;14.70;7.40;;;1.10;1.00;;;;;;5086537;28;20570;-73
2022/12/15 06:43:32;;;;;;;11.20;6.43;;;1.10;1.00;;;;;;5085660;28;20452;-73
2022/12/15 06:45:59;;;;;;;12.13;10.03;;;1.20;1.00;;;;;;5087510;28;20582;-73
2022/12/15 06:48:26;;;;;;;9.63;6.17;;;1.10;1.00;;;;;;5078738;28;20822;-72
2022/12/15 06:50:53;;;;;;;14.10;6.50;;;1.10;1.00;;;;;;5088414;28;20474;-72
2022/12/15 06:53:23;;;;;;;12.77;8.00;;;1.20;1.00;;;;;;5084379;28;20445;-73
2022/12/15 06:55:50;;;;;;;16.83;8.63;;;;;;;;;;5083320;28;20970;-71
2022/12/15 06:58:18;;;;;;;13.93;6.90;;;;;;;;;;5078949;28;20459;-71
2022/12/15 07:00:47;;;;;;;17.67;10.10;;;;;;;;;;5090485;28;20510;-72
2022/12/15 07:03:15;;;;;;;21.63;11.00;;;;;;;;;;5086276;28;20451;-72
2022/12/15 07:05:43;;;;;;;25.87;11.27;;;;;;;;;;5088748;28;20505;-70
2022/12/15 07:08:11;;;;;;;16.20;7.67;;;1.30;99.90;;;;;;5083162;28;20448;-70
2022/12/15 07:10:40;;;;;;;8.97;7.90;;;1.50;99.90;;;;;;5094724;28;20463;-69
2022/12/15 07:13:09;;;;;;;15.80;8.73;;;1.40;99.90;;;;;;5083203;28;20459;-71
2022/12/15 07:15:36;;;;;;;19.13;9.67;;;1.30;99.90;;;;;;5089488;28;20455;-71
2022/12/15 07:18:04;;;;;;;19.20;8.17;;;1.40;99.90;;;;;;5094920;28;20510;-69
2022/12/15 07:20:31;;;;;;;16.00;7.80;;;1.30;51.50;;;;;;5092459;28;20550;-71
2022/12/15 07:22:58;;;;;;;13.57;8.53;;;1.40;73.40;;;;;;5096381;28;20998;-71
2022/12/15 07:25:24;;;;;;;11.57;7.23;;;1.40;99.90;;;;;;5097661;28;20466;-71
2022/12/15 07:27:51;;;;;;;12.30;6.30;;;1.30;1.00;;;;;;5096908;28;20440;-70
2022/12/15 07:30:18;;;;;;;14.30;9.97;;;1.30;99.90;;;;;;5096320;28;20480;-71
2022/12/15 07:32:45;;;;;;;18.50;7.50;;;1.30;99.90;;;;;;5097536;28;20459;-71
2022/12/15 07:35:13;;;;;;;9.20;6.23;;;1.40;14.20;;;;;;5090026;28;20458;-71
2022/12/15 07:37:40;;;;;;;22.87;10.00;;;1.30;99.90;;;;;;5083517;28;20875;-71
2022/12/15 07:40:08;;;;;;;19.93;9.80;;;1.30;99.90;;;;;;5093300;28;20451;-71
2022/12/15 07:42:35;;;;;;;14.70;8.50;;;1.30;99.90;;;;;;5086249;28;20480;-72
2022/12/15 07:45:02;;;;;;;19.23;9.30;;;1.20;99.90;;;;;;5091582;28;20442;-71
2022/12/15 07:47:29;;;;;;;11.87;6.63;;;1.30;1.00;;;;;;5088298;28;20452;-72
2022/12/15 07:49:56;;;;;;;15.80;9.60;;;1.40;1.00;;;;;;5094605;28;20478;-71
2022/12/15 07:52:24;;;;;;;18.40;11.97;;;1.40;99.90;;;;;;5086110;28;20455;-72
2022/12/15 07:54:51;;;;;;;14.10;9.87;;;1.50;99.90;;;;;;5090321;28;20817;-70
2022/12/15 07:57:18;;;;;;;17.53;9.23;;;1.50;99.90;;;;;;5093663;28;20451;-71
2022/12/15 07:59:46;;;;;;;16.33;10.50;;;1.40;86.90;;;;;;5095223;28;20448;-72
2022/12/15 08:02:14;;;;;;;9.53;6.70;;;1.50;99.90;;;;;;5096629;28;20986;-71
2022/12/15 08:04:41;;;;;;;15.63;8.50;;;1.50;99.90;;;;;;5096606;28;20954;-72
2022/12/15 08:07:09;;;;;;;19.87;11.40;;;1.50;99.90;;;;;;5090962;28;20455;-72
2022/12/15 08:09:37;;;;;;;17.03;10.40;;;1.50;44.30;;;;;;5089697;28;20546;-71
2022/12/15 08:12:04;;;;;;;20.10;8.80;;;1.50;99.90;;;;;;5088109;28;20456;-72
2022/12/15 08:14:32;;;;;;;28.93;10.57;;;1.50;99.90;;;;;;5088491;28;20452;-72
2022/12/15 08:16:58;;;;;;;25.03;12.03;;;1.80;99.90;;;;;;5092353;28;20463;-72
2022/12/15 08:19:25;;;;;;;16.53;10.30;;;1.90;1.00;;;;;;5083978;28;20453;-71
2022/12/15 08:21:52;;;;;;;19.63;10.23;;;1.70;1.00;;;;;;5090674;28;20476;-70
2022/12/15 08:24:19;;;;;;;17.50;9.40;;;1.80;1.00;;;;;;5091988;28;20449;-72
2022/12/15 08:26:48;;;;;;;14.67;10.77;;;1.80;1.00;;;;;;5080361;28;20460;-72
2022/12/15 08:29:15;;;;;;;15.70;9.73;;;2.00;1.00;;;;;;5085121;28;20457;-72
2022/12/15 08:31:43;;;;;;;20.67;9.23;;;2.00;99.90;;;;;;5083643;28;20456;-71
2022/12/15 08:34:10;;;;;;;20.10;7.67;;;1.80;1.00;;;;;;5088761;28;20452;-71
2022/12/15 08:36:37;;;;;;;18.20;12.60;;;1.70;99.90;;;;;;5092207;28;20452;-70
2022/12/15 08:39:04;;;;;;;15.30;9.87;;;1.60;99.90;;;;;;5091399;28;20885;-71
2022/12/15 08:41:32;;;;;;;17.10;8.43;;;1.70;99.90;;;;;;5092290;28;20797;-69
2022/12/15 08:44:02;;;;;;;13.50;8.07;;;1.70;3.20;;;;;;5076936;28;20444;-71
2022/12/15 08:46:32;;;;;;;16.60;10.73;;;1.80;99.90;;;;;;5086675;28;20445;-74
2022/12/15 08:48:59;;;;;;;16.20;9.37;;;1.80;15.80;;;;;;5080657;28;20994;-74
2022/12/15 08:51:29;;;;;;;13.57;7.10;;;2.10;1.00;;;;;;5090184;28;20458;-74
2022/12/15 08:53:56;;;;;;;16.47;8.20;;;1.80;1.00;;;;;;5081258;28;20446;-73
2022/12/15 08:56:24;;;;;;;19.13;9.03;;;1.60;1.00;;;;;;5088857;28;20965;-74
2022/12/15 08:58:55;;;;;;;11.33;7.40;;;1.60;46.40;;;;;;5091067;28;20452;-74
2022/12/15 09:01:25;;;;;;;15.57;9.20;;;1.70;99.90;;;;;;5082389;28;20449;-73
2022/12/15 09:03:53;;;;;;;15.37;10.57;;;1.70;1.00;;;;;;5091861;28;20453;-73
2022/12/15 09:06:22;;;;;;;11.03;8.40;;;1.60;99.90;;;;;;5092131;28;20445;-73
2022/12/15 09:08:49;;;;;;;21.83;10.87;;;1.50;99.90;;;;;;5085698;28;20507;-71
2022/12/15 09:11:16;;;;;;;14.60;10.10;;;1.60;1.00;;;;;;5091733;28;20453;-72
2022/12/15 09:13:43;;;;;;;12.00;9.50;;;1.80;1.00;;;;;;5082509;28;20547;-69
2022/12/15 09:16:13;;;;;;;17.67;10.53;;;1.80;1.00;;;;;;5091035;28;20841;-71
2022/12/15 09:18:43;;;;;;;17.63;10.93;;;1.70;1.00;;;;;;5091440;28;20521;-71
2022/12/15 09:21:11;;;;;;;14.07;8.80;;;1.80;1.00;;;;;;5079348;28;20448;-70
2022/12/15 09:23:38;;;;;;;20.37;10.17;;;1.90;99.90;;;;;;5078284;28;20492;-70
2022/12/15 09:26:07;;;;;;;21.83;13.30;;;1.90;91.30;;;;;;5079707;28;20954;-71
2022/12/15 09:28:34;;;;;;;13.30;8.30;;;2.00;99.90;;;;;;5078344;28;20542;-70
2022/12/15 09:31:02;;;;;;;17.90;8.27;;;2.00;99.90;;;;;;5089906;28;20589;-70
2022/12/15 09:33:29;;;;;;;14.00;8.50;;;2.00;1.00;;;;;;5092125;28;20456;-71
2022/12/15 09:35:58;;;;;;;18.27;8.67;;;2.10;99.90;;;;;;5090734;28;20459;-71
2022/12/15 09:38:24;;;;;;;13.50;9.63;;;2.00;1.00;;;;;;5090222;28;20449;-70
2022/12/15 09:40:51;;;;;;;13.60;9.13;;;2.10;99.90;;;;;;5080876;28;20934;-68
2022/12/15 09:43:22;;;;;;;14.67;8.30;;;2.00;65.20;;;;;;5084865;28;20482;-71
2022/12/15 09:45:54;;;;;;;18.43;9.53;;;2.00;1.00;;;;;;5080994;28;20464;-68
2022/12/15 09:48:24;;;;;;;21.10;10.70;;;1.90;1.00;;;;;;5089442;28;20464;-72
2022/12/15 09:50:53;;;;;;;16.40;8.67;;;2.00;1.00;;;;;;5088038;28;20447;-68
2022/12/15 09:53:25;;;;;;;26.07;9.30;;;2.10;1.00;;;;;;5087866;28;20448;-71
2022/12/15 09:55:58;;;;;;;14.63;8.77;;;2.00;1.00;;;;;;5090359;28;20448;-68
2022/12/15 09:58:39;;;;;;;11.83;7.50;;;2.00;32.30;;;;;;5077783;28;20453;-70
2022/12/15 10:01:15;;;;;;;16.57;10.10;;;2.00;1.00;;;;;;5085644;28;20450;-71
2022/12/15 10:03:53;;;;;;;16.80;8.37;;;2.00;1.00;;;;;;5086790;28;20478;-71
2022/12/15 10:06:23;;;;;;;15.67;9.67;;;2.10;1.00;;;;;;5089985;28;20458;-71
2022/12/15 10:08:55;;;;;;;16.93;8.77;;;1.90;99.90;;;;;;5090451;28;20455;-68
2022/12/15 10:11:34;;;;;;;16.57;9.20;;;2.10;99.90;;;;;;5089336;28;20441;-71
2022/12/15 10:14:11;;;;;;;12.90;7.10;;;2.10;99.90;;;;;;5099516;28;20439;-71
2022/12/15 10:16:52;;;;;;;20.77;11.10;;;2.10;88.70;;;;;;5102921;28;20499;-72
2022/12/15 10:19:24;;;;;;;14.40;9.43;;;2.10;99.90;;;;;;5088632;28;20502;-72
2022/12/15 10:21:51;;;;;;;15.60;7.23;;;2.20;99.90;;;;;;5082875;28;20438;-70
2022/12/15 10:24:21;;;;;;;17.67;9.13;;;2.10;1.00;;;;;;5091071;28;20453;-72
2022/12/15 10:26:55;;;;;;;13.90;8.57;;;2.10;1.00;;;;;;5085336;28;20446;-71
2022/12/15 10:29:33;;;;;;;11.37;6.80;;;2.10;99.90;;;;;;5085800;28;20453;-71
2022/12/15 10:32:05;;;;;;;21.77;9.40;;;2.20;99.90;;;;;;5083333;28;20446;-71
2022/12/15 10:34:35;;;;;;;15.00;7.70;;;2.20;99.90;;;;;;5086504;28;20442;-69
2022/12/15 10:37:02;;;;;;;20.87;8.90;;;2.30;1.00;;;;;;5079207;28;20509;-70
2022/12/15 10:39:39;;;;;;;14.77;9.37;;;2.40;1.00;;;;;;5079000;28;20450;-70
2022/12/15 10:42:15;;;;;;;12.60;8.30;;;2.40;1.00;;;;;;5086000;28;20812;-70
2022/12/15 10:44:43;;;;;;;20.97;10.40;;;2.30;99.90;;;;;;5086669;28;20447;-70
2022/12/15 10:47:15;;;;;;;17.00;10.30;;;2.40;1.00;;;;;;5083348;28;20468;-69
2022/12/15 10:49:42;;;;;;;26.70;10.40;;;2.40;1.00;;;;;;5082536;28;20474;-69
2022/12/15 10:52:18;;;;;;;19.10;9.90;;;2.40;68.00;;;;;;5085387;28;20463;-69
2022/12/15 10:54:50;;;;;;;15.53;9.30;;;2.40;1.00;;;;;;5084296;28;20434;-70
2022/12/15 10:57:19;;;;;;;14.63;8.73;;;2.20;1.00;;;;;;5080257;28;20453;-70
2022/12/15 10:59:46;;;;;;;17.97;9.83;;;2.20;1.00;;;;;;5083800;28;20937;-69
2022/12/15 11:02:35;;;;;;;28.67;12.50;;;2.30;1.00;;;;;;5089713;28;20480;-71
2022/12/15 11:05:04;;;;;;;23.60;10.10;;;2.30;99.90;;;;;;5083658;28;20498;-70
2022/12/15 11:07:37;;;;;;;17.03;10.40;;;2.20;99.90;;;;;;5086827;28;20456;-70
2022/12/15 11:10:18;;;;;;;16.60;9.57;;;2.20;1.00;;;;;;5088273;28;20452;-70
2022/12/15 11:12:54;;;;;;;16.97;9.63;;;2.40;1.00;;;;;;5076195;28;20821;-70
2022/12/15 11:15:42;;;;;;;20.67;10.80;;;2.50;1.00;;;;;;5080721;28;20441;-70
2022/12/15 11:18:38;;;;;;;16.97;8.63;;;2.40;1.00;;;;;;5083795;28;20521;-70
2022/12/15 11:21:11;;;;;;;13.80;9.43;;;2.30;1.00;;;;;;5084159;28;20444;-70
2022/12/15 11:23:49;;;;;;;16.63;9.90;;;2.40;1.00;;;;;;5087593;28;20460;-70
2022/12/15 11:26:26;;;;;;;15.90;12.30;;;2.50;1.00;;;;;;5088112;28;20486;-69
2022/12/15 11:28:59;;;;;;;17.03;10.47;;;2.50;99.90;;;;;;5085731;28;20448;-76
2022/12/15 11:31:33;;;;;;;19.10;9.90;;;2.50;99.90;;;;;;5078890;28;20830;-69
2022/12/15 11:34:01;;;;;;;21.37;9.60;;;2.60;64.40;;;;;;5083902;28;20990;-75
2022/12/15 11:36:58;;;;;;;16.60;8.83;;;2.60;1.00;;;;;;5087452;28;20449;-71
2022/12/15 11:39:41;;;;;;;19.10;10.70;;;2.60;1.00;;;;;;5051495;28;20449;-71
2022/12/15 11:42:18;;;;;;;18.37;9.40;;;2.70;1.00;;;;;;5083581;28;20921;-72
2022/12/15 11:44:58;;;;;;;18.40;9.13;;;2.60;1.00;;;;;;5084371;28;20445;-73
2022/12/15 11:47:35;;;;;;;17.63;9.07;;;2.50;1.00;;;;;;5088469;28;20450;-75
2022/12/15 11:50:23;;;;;;;17.27;9.90;;;2.60;99.90;;;;;;5088097;28;20487;-73
2022/12/15 11:53:06;;;;;;;19.83;10.43;;;2.70;1.00;;;;;;5085712;28;20482;-73
2022/12/15 11:55:41;;;;;;;16.97;9.20;;;2.60;1.00;;;;;;5093908;28;20491;-74
2022/12/15 11:58:48;;;;;;;11.03;6.83;;;2.60;99.90;;;;;;5079357;28;20557;-73
2022/12/15 12:01:34;;;;;;;30.17;9.60;;;2.60;1.00;;;;;;5089525;28;20527;-73
2022/12/15 12:04:09;;;;;;;18.03;8.80;;;2.60;99.90;;;;;;5088389;28;20523;-69
2022/12/15 12:06:39;;;;;;;21.90;13.00;;;;;;;;;;5081570;28;20447;-72
2022/12/15 12:09:26;;;;;;;13.60;8.27;;;;;;;;;;5085014;28;20571;-74
2022/12/15 12:11:56;;;;;;;22.00;10.00;;;;;;;;;;5087804;28;20520;-74
2022/12/15 12:14:29;;;;;;;26.60;11.20;;;;;;;;;;5092090;28;20544;-74
2022/12/15 12:17:07;;;;;;;13.43;7.83;;;;;;;;;;5091284;28;21008;-73
2022/12/15 12:19:41;;;;;;;18.23;11.27;;;;;;;;;;5087043;28;20454;-74
2022/12/15 12:22:13;;;;;;;12.80;9.10;;;;;;;;;;5089968;28;20710;-73
2022/12/15 12:24:42;;;;;;;17.93;9.57;;;;;;;;;;5082440;28;20449;-73
2022/12/15 12:27:17;;;;;;;21.17;8.90;;;;;;;;;;5092030;28;20461;-74
2022/12/15 12:29:48;;;;;;;18.93;9.23;;;2.50;18.40;;;;;;5092493;28;20936;-72
2022/12/15 12:32:24;;;;;;;14.40;8.97;;;2.50;99.90;;;;;;5074183;28;20455;-73
2022/12/15 12:35:01;;;;;;;11.67;7.97;;;2.60;48.80;;;;;;5090201;28;20522;-72
2022/12/15 12:37:43;;;;;;;19.80;8.93;;;2.60;1.00;;;;;;5086881;28;20942;-74
2022/12/15 12:40:18;;;;;;;12.83;8.20;;;2.80;1.00;;;;;;5092498;28;21005;-72
2022/12/15 12:42:54;;;;;;;16.00;8.87;;;2.90;99.90;;;;;;5093637;28;20465;-70
2022/12/15 12:45:25;;;;;;;13.90;8.97;;;2.90;99.90;;;;;;5080480;28;20447;-68
2022/12/15 12:47:59;;;;;;;16.20;8.60;;;2.90;99.90;;;;;;5087065;28;20459;-69
2022/12/15 12:50:39;;;;;;;15.90;9.37;;;3.00;99.90;;;;;;5091723;28;20502;-69
2022/12/15 12:53:25;;;;;;;19.00;10.63;;;3.00;99.90;;;;;;5093609;28;20451;-70
2022/12/15 12:55:53;;;;;;;15.87;7.00;;;3.00;99.90;;;;;;5082472;28;20514;-69
2022/12/15 12:58:34;;;;;;;14.60;9.57;;;3.00;99.90;;;;;;5100227;28;20455;-69
2022/12/15 13:01:14;;;;;;;11.90;7.70;;;2.80;99.90;;;;;;5102699;28;20453;-70
2022/12/15 13:03:43;;;;;;;22.40;9.30;;;2.90;1.00;;;;;;5094933;28;20474;-70
2022/12/15 13:06:21;;;;;;;15.10;8.87;;;3.10;1.00;;;;;;5092547;28;20560;-70
2022/12/15 13:08:50;;;;;;;18.77;8.77;;;3.00;99.90;;;;;;5083072;28;20470;-68
2022/12/15 13:11:57;;;;;;;19.43;10.00;;;3.00;1.00;;;;;;5079711;28;20479;-69
2022/12/15 13:14:43;;;;;;;19.57;10.23;;;3.00;1.00;;;;;;5087676;28;20451;-69
2022/12/15 13:17:23;;;;;;;14.77;9.20;;;2.90;1.00;;;;;;5086776;28;20843;-69
2022/12/15 13:20:27;;;;;;;22.90;11.70;;;3.20;18.00;;;;;;5086844;28;20803;-69
2022/12/15 13:23:16;;;;;;;18.23;8.60;;;3.30;99.90;;;;;;5072402;28;20485;-69
2022/12/15 13:25:44;;;;;;;16.10;8.93;;;3.40;99.90;;;;;;5075156;28;20436;-72
2022/12/15 13:28:46;;;;;;;18.40;10.97;;;3.50;1.00;;;;;;5083396;28;20817;-69
2022/12/15 13:31:27;;;;;;;15.97;10.03;;;3.50;99.90;;;;;;5089169;28;20940;-73
2022/12/15 13:34:10;;;;;;;14.00;9.23;;;3.50;99.90;;;;;;5089342;28;20940;-71
2022/12/15 13:36:54;;;;;;;14.67;9.03;;;3.20;99.90;;;;;;5079733;28;20464;-72
2022/12/15 13:39:57;;;;;;;23.20;8.80;;;3.40;99.90;;;;;;5091418;28;20502;-69
2022/12/15 13:42:39;;;;;;;15.47;9.50;;;3.30;99.90;;;;;;5079678;28;20440;-71
2022/12/15 13:45:43;;;;;;;15.77;9.90;;;3.50;1.00;;;;;;5085611;28;20436;-71
2022/12/15 13:48:24;;;;;;;23.07;8.70;;;3.60;99.90;;;;;;5084258;28;20486;-73
2022/12/15 13:50:58;;;;;;;12.90;8.40;;;3.40;1.00;;;;;;5087957;28;20460;-74
2022/12/15 13:53:26;;;;;;;14.40;9.10;;;3.30;1.00;;;;;;5090621;28;20441;-73
2022/12/15 13:56:00;;;;;;;19.73;8.63;;;3.30;1.00;;;;;;5080136;28;20468;-77
2022/12/15 13:58:38;;;;;;;18.43;9.80;;;3.30;99.90;;;;;;5079137;28;20445;-74
2022/12/15 14:01:20;;;;;;;13.47;7.87;;;3.10;1.00;;;;;;5086616;28;20542;-74
2022/12/15 14:03:58;;;;;;;14.47;7.90;;;2.90;99.90;;;;;;5072655;28;20468;-82
2022/12/15 14:06:28;;;;;;;18.40;9.97;;;3.00;99.90;;;;;;5088765;28;20454;-79
2022/12/15 14:08:55;;;;;;;12.40;7.13;;;2.90;1.00;;;;;;5089100;28;20464;-79
2022/12/15 14:11:23;;;;;;;12.80;8.10;;;;;;;;;;5084351;28;20456;-74
2022/12/15 14:13:52;;;;;;;27.80;10.73;;;;;;;;;;5083885;28;20516;-72
2022/12/15 14:16:20;;;;;;;12.30;9.67;;;2.90;1.00;;;;;;5083169;28;20458;-77
2022/12/15 14:19:04;;;;;;;14.57;7.63;;;2.70;1.00;;;;;;5090550;28;20574;-74
2022/12/15 14:21:31;;;;;;;13.87;8.57;;;2.70;1.00;;;;;;5082296;28;20453;-72
2022/12/15 14:23:59;;;;;;;15.67;8.97;;;2.70;44.10;;;;;;5086362;28;20977;-78
2022/12/15 14:26:29;;;;;;;10.40;8.63;;;2.60;65.70;;;;;;5079674;28;20537;-78
2022/12/15 14:29:02;;;;;;;16.53;8.10;;;2.70;99.90;;;;;;5081718;28;20442;-79
2022/12/15 14:31:30;;;;;;;18.20;8.60;;;2.70;99.90;;;;;;5083266;28;20442;-80
2022/12/15 14:34:02;;;;;;;14.07;8.13;;;2.70;1.00;;;;;;5084791;28;20960;-76
2022/12/15 14:36:30;;;;;;;14.57;7.80;;;2.80;1.00;;;;;;5090248;28;20447;-71
2022/12/15 14:39:01;;;;;;;14.27;7.07;;;2.80;1.00;;;;;;5083410;28;20950;-79
2022/12/15 14:41:32;;;;;;;14.50;7.77;;;3.10;1.00;;;;;;5089553;28;20440;-78
2022/12/15 14:44:02;;;;;;;15.83;9.47;;;3.30;42.80;;;;;;5080417;28;20472;-75
2022/12/15 14:46:30;;;;;;;9.50;7.03;;;3.20;99.90;;;;;;5081640;28;20468;-76
2022/12/15 14:49:00;;;;;;;13.23;7.33;;;2.90;99.90;;;;;;5085605;28;20478;-75
2022/12/15 14:51:28;;;;;;;17.37;9.27;;;2.80;1.00;;;;;;5087523;28;20476;-79
2022/12/15 14:53:55;;;;;;;14.33;8.00;;;2.80;99.90;;;;;;5083618;28;20465;-79
2022/12/15 14:56:27;;;;;;;11.17;7.00;;;2.80;1.00;;;;;;5090627;28;20452;-78
2022/12/15 14:59:02;;;;;;;15.00;6.50;;;2.80;99.90;;;;;;5088276;28;20550;-76
2022/12/15 15:01:34;;;;;;;17.03;7.37;;;2.70;1.00;;;;;;5082639;28;20864;-79
2022/12/15 15:04:03;;;;;;;18.37;7.90;;;2.80;1.00;;;;;;5085494;28;20467;-79
2022/12/15 15:06:36;;;;;;;13.77;8.30;;;2.80;99.90;;;;;;5077639;28;20459;-79
2022/12/15 15:09:13;;;;;;;16.40;9.33;;;2.70;99.90;;;;;;5086891;28;20456;-80
2022/12/15 15:11:41;;;;;;;14.27;8.60;;;2.80;38.50;;;;;;5085241;28;20447;-78
2022/12/15 15:14:14;;;;;;;17.33;9.73;;;2.70;1.00;;;;;;5089178;28;20754;-78
2022/12/15 15:16:42;;;;;;;25.37;8.63;;;2.60;10.20;;;;;;5083565;28;20438;-77
2022/12/15 15:19:19;;;;;;;12.70;7.90;;;2.50;1.00;;;;;;5089696;28;20446;-79
2022/12/15 15:21:47;;;;;;;17.57;7.83;;;2.50;99.90;;;;;;5092053;28;20507;-79
2022/12/15 15:24:24;;;;;;;19.70;7.97;;;2.60;93.50;;;;;;5089723;28;20472;-79
2022/12/15 15:26:52;;;;;;;18.53;9.20;;;2.60;1.00;;;;;;5092738;28;20472;-72
2022/12/15 15:29:38;;;;;;;20.23;9.03;;;2.60;1.00;;;;;;5082152;28;20452;-78
2022/12/15 15:32:07;;;;;;;16.20;7.23;;;2.60;99.90;;;;;;5086838;28;20449;-77
2022/12/15 15:34:34;;;;;;;17.87;9.43;;;2.60;99.90;;;;;;5074598;28;20464;-79
2022/12/15 15:37:04;;;;;;;22.20;8.70;;;2.60;1.00;;;;;;5089894;28;20440;-78
2022/12/15 15:39:32;;;;;;;11.73;7.60;;;2.50;99.90;;;;;;5095165;28;20441;-79
2022/12/15 15:42:05;;;;;;;14.57;8.90;;;2.60;87.70;;;;;;5101060;28;20528;-79